sensor_id;sensor_type;location;lat;lon;timestamp;P1;durP1;ratioP1;P2;durP2;ratioP2
74851;SDS011;63400;50.650;6.832;2023-05-18T01:27:22;16.85;;;4.25;;
74851;SDS011;63400;50.650;6.832;2023-05-18T01:30:15;10.90;;;3.47;;
74851;SDS011;63400;50.650;6.832;2023-05-18T01:36:24;16.27;;;3.88;;
74851;SDS011;63400;50.650;6.832;2023-05-18T01:39:12;12.00;;;3.22;;
74851;SDS011;63400;50.650;6.832;2023-05-18T01:42:20;14.50;;;3.47;;
74851;SDS011;63400;50.650;6.832;2023-05-18T10:10:06;5.57;;;1.27;;
74851;SDS011;63400;50.650;6.832;2023-05-18T10:12:32;5.50;;;0.85;;
74851;SDS011;63400;50.650;6.832;2023-05-18T10:14:58;7.38;;;1.10;;
74851;SDS011;63400;50.650;6.832;2023-05-18T10:17:23;4.32;;;0.88;;
74851;SDS011;63400;50.650;6.832;2023-05-18T10:19:50;7.85;;;1.20;;
74851;SDS011;63400;50.650;6.832;2023-05-18T10:22:18;5.40;;;1.02;;
74851;SDS011;63400;50.650;6.832;2023-05-18T10:24:48;6.55;;;1.23;;
74851;SDS011;63400;50.650;6.832;2023-05-18T10:27:15;6.13;;;1.10;;
74851;SDS011;63400;50.650;6.832;2023-05-18T10:32:07;6.10;;;0.83;;
74851;SDS011;63400;50.650;6.832;2023-05-18T10:34:36;6.32;;;1.15;;
74851;SDS011;63400;50.650;6.832;2023-05-18T10:37:02;5.95;;;1.33;;
74851;SDS011;63400;50.650;6.832;2023-05-18T10:39:30;4.57;;;0.80;;
74851;SDS011;63400;50.650;6.832;2023-05-18T10:41:56;7.47;;;1.35;;
74851;SDS011;63400;50.650;6.832;2023-05-18T10:44:22;6.00;;;0.90;;
74851;SDS011;63400;50.650;6.832;2023-05-18T10:49:14;5.93;;;1.23;;
74851;SDS011;63400;50.650;6.832;2023-05-18T10:51:42;4.22;;;0.95;;
74851;SDS011;63400;50.650;6.832;2023-05-18T10:54:12;5.10;;;1.15;;
74851;SDS011;63400;50.650;6.832;2023-05-18T10:56:46;5.00;;;1.08;;
74851;SDS011;63400;50.650;6.832;2023-05-18T10:59:14;6.07;;;1.20;;
74851;SDS011;63400;50.650;6.832;2023-05-18T11:01:40;4.88;;;0.88;;
74851;SDS011;63400;50.650;6.832;2023-05-18T11:04:06;17.55;;;1.77;;
74851;SDS011;63400;50.650;6.832;2023-05-18T11:06:33;5.18;;;1.02;;
74851;SDS011;63400;50.650;6.832;2023-05-18T11:08:59;5.55;;;0.82;;
74851;SDS011;63400;50.650;6.832;2023-05-18T11:11:27;7.22;;;0.80;;
74851;SDS011;63400;50.650;6.832;2023-05-18T11:13:59;5.28;;;0.88;;
74851;SDS011;63400;50.650;6.832;2023-05-18T11:16:32;5.82;;;1.33;;
74851;SDS011;63400;50.650;6.832;2023-05-18T11:19:06;6.38;;;1.45;;
74851;SDS011;63400;50.650;6.832;2023-05-18T11:26:45;4.10;;;1.10;;
74851;SDS011;63400;50.650;6.832;2023-05-18T11:29:16;4.65;;;1.30;;
74851;SDS011;63400;50.650;6.832;2023-05-18T11:37:13;8.75;;;1.50;;
74851;SDS011;63400;50.650;6.832;2023-05-18T11:39:52;4.68;;;1.35;;
74851;SDS011;63400;50.650;6.832;2023-05-18T11:42:19;6.80;;;1.52;;
74851;SDS011;63400;50.650;6.832;2023-05-18T11:44:51;4.57;;;1.38;;
74851;SDS011;63400;50.650;6.832;2023-05-18T11:47:19;4.85;;;1.33;;
74851;SDS011;63400;50.650;6.832;2023-05-18T11:49:48;5.53;;;1.52;;
74851;SDS011;63400;50.650;6.832;2023-05-18T11:52:16;5.68;;;1.38;;
74851;SDS011;63400;50.650;6.832;2023-05-18T11:54:52;5.55;;;1.00;;
74851;SDS011;63400;50.650;6.832;2023-05-18T11:57:25;4.93;;;1.52;;
74851;SDS011;63400;50.650;6.832;2023-05-18T12:00:06;6.25;;;1.30;;
74851;SDS011;63400;50.650;6.832;2023-05-18T12:02:34;4.65;;;1.15;;
74851;SDS011;63400;50.650;6.832;2023-05-18T12:04:59;8.18;;;2.25;;
74851;SDS011;63400;50.650;6.832;2023-05-18T12:09:54;6.32;;;1.17;;
74851;SDS011;63400;50.650;6.832;2023-05-18T12:12:32;3.90;;;1.13;;
74851;SDS011;63400;50.650;6.832;2023-05-18T12:14:59;4.80;;;1.80;;
74851;SDS011;63400;50.650;6.832;2023-05-18T12:17:36;7.60;;;1.42;;
74851;SDS011;63400;50.650;6.832;2023-05-18T12:20:07;5.90;;;1.48;;
74851;SDS011;63400;50.650;6.832;2023-05-18T12:22:35;5.00;;;0.80;;
74851;SDS011;63400;50.650;6.832;2023-05-18T12:25:01;4.20;;;1.15;;
74851;SDS011;63400;50.650;6.832;2023-05-18T12:27:26;6.85;;;1.70;;
74851;SDS011;63400;50.650;6.832;2023-05-18T12:29:53;6.10;;;1.65;;
74851;SDS011;63400;50.650;6.832;2023-05-18T12:32:18;5.20;;;1.00;;
74851;SDS011;63400;50.650;6.832;2023-05-18T12:34:44;4.38;;;0.90;;
74851;SDS011;63400;50.650;6.832;2023-05-18T12:37:09;5.95;;;1.33;;
74851;SDS011;63400;50.650;6.832;2023-05-18T12:39:35;5.30;;;1.15;;
74851;SDS011;63400;50.650;6.832;2023-05-18T12:42:11;4.10;;;0.75;;
74851;SDS011;63400;50.650;6.832;2023-05-18T12:44:42;5.53;;;1.88;;
74851;SDS011;63400;50.650;6.832;2023-05-18T12:47:09;8.38;;;1.38;;
74851;SDS011;63400;50.650;6.832;2023-05-18T12:49:41;5.28;;;1.60;;
74851;SDS011;63400;50.650;6.832;2023-05-18T12:52:08;5.13;;;1.25;;
74851;SDS011;63400;50.650;6.832;2023-05-18T12:54:50;6.00;;;1.30;;
74851;SDS011;63400;50.650;6.832;2023-05-18T12:57:22;4.75;;;1.20;;
74851;SDS011;63400;50.650;6.832;2023-05-18T12:59:54;7.88;;;1.30;;
74851;SDS011;63400;50.650;6.832;2023-05-18T13:02:26;7.07;;;1.60;;
74851;SDS011;63400;50.650;6.832;2023-05-18T13:05:00;4.13;;;1.50;;
74851;SDS011;63400;50.650;6.832;2023-05-18T13:07:26;5.95;;;1.95;;
74851;SDS011;63400;50.650;6.832;2023-05-18T13:09:52;7.63;;;1.45;;
74851;SDS011;63400;50.650;6.832;2023-05-18T13:12:33;7.90;;;1.60;;
74851;SDS011;63400;50.650;6.832;2023-05-18T13:15:06;5.30;;;1.80;;
74851;SDS011;63400;50.650;6.832;2023-05-18T13:17:33;4.35;;;1.50;;
74851;SDS011;63400;50.650;6.832;2023-05-18T13:19:58;6.30;;;1.45;;
74851;SDS011;63400;50.650;6.832;2023-05-18T13:22:24;6.03;;;1.50;;
74851;SDS011;63400;50.650;6.832;2023-05-18T13:24:50;3.75;;;1.63;;
74851;SDS011;63400;50.650;6.832;2023-05-18T13:27:15;4.88;;;1.05;;
74851;SDS011;63400;50.650;6.832;2023-05-18T13:29:40;4.25;;;1.17;;
74851;SDS011;63400;50.650;6.832;2023-05-18T13:32:06;4.05;;;1.08;;
74851;SDS011;63400;50.650;6.832;2023-05-18T13:34:31;8.90;;;1.80;;
74851;SDS011;63400;50.650;6.832;2023-05-18T13:36:57;5.10;;;1.40;;
74851;SDS011;63400;50.650;6.832;2023-05-18T13:39:24;6.28;;;1.70;;
74851;SDS011;63400;50.650;6.832;2023-05-18T13:41:50;3.25;;;1.55;;
74851;SDS011;63400;50.650;6.832;2023-05-18T13:44:15;5.00;;;1.45;;
74851;SDS011;63400;50.650;6.832;2023-05-18T13:46:42;4.65;;;1.23;;
74851;SDS011;63400;50.650;6.832;2023-05-18T13:49:07;4.20;;;1.38;;
74851;SDS011;63400;50.650;6.832;2023-05-18T13:51:33;4.57;;;1.65;;
74851;SDS011;63400;50.650;6.832;2023-05-18T13:53:58;8.40;;;1.88;;
74851;SDS011;63400;50.650;6.832;2023-05-18T13:56:23;7.38;;;1.77;;
74851;SDS011;63400;50.650;6.832;2023-05-18T13:58:56;7.30;;;1.92;;
74851;SDS011;63400;50.650;6.832;2023-05-18T14:01:26;5.68;;;1.77;;
74851;SDS011;63400;50.650;6.832;2023-05-18T14:03:56;3.90;;;1.50;;
74851;SDS011;63400;50.650;6.832;2023-05-18T14:06:22;6.25;;;1.65;;
74851;SDS011;63400;50.650;6.832;2023-05-18T14:08:48;6.28;;;2.45;;
74851;SDS011;63400;50.650;6.832;2023-05-18T14:11:13;6.90;;;1.40;;
74851;SDS011;63400;50.650;6.832;2023-05-18T14:13:39;4.03;;;1.77;;
74851;SDS011;63400;50.650;6.832;2023-05-18T14:16:05;6.97;;;1.83;;
74851;SDS011;63400;50.650;6.832;2023-05-18T14:18:30;5.63;;;1.70;;
74851;SDS011;63400;50.650;6.832;2023-05-18T14:20:56;7.80;;;1.73;;
74851;SDS011;63400;50.650;6.832;2023-05-18T14:23:26;4.85;;;1.88;;
74851;SDS011;63400;50.650;6.832;2023-05-18T14:25:52;5.03;;;1.52;;
74851;SDS011;63400;50.650;6.832;2023-05-18T14:28:17;11.63;;;2.17;;
74851;SDS011;63400;50.650;6.832;2023-05-18T14:30:43;6.75;;;1.75;;
74851;SDS011;63400;50.650;6.832;2023-05-18T14:33:08;5.28;;;2.08;;
74851;SDS011;63400;50.650;6.832;2023-05-18T14:35:33;6.70;;;2.08;;
74851;SDS011;63400;50.650;6.832;2023-05-18T14:37:59;6.25;;;1.90;;
74851;SDS011;63400;50.650;6.832;2023-05-18T14:40:24;6.55;;;1.98;;
74851;SDS011;63400;50.650;6.832;2023-05-18T14:42:50;4.38;;;1.20;;
74851;SDS011;63400;50.650;6.832;2023-05-18T14:45:15;4.65;;;2.58;;
74851;SDS011;63400;50.650;6.832;2023-05-18T14:47:41;4.35;;;1.50;;
74851;SDS011;63400;50.650;6.832;2023-05-18T14:50:07;5.30;;;1.75;;
74851;SDS011;63400;50.650;6.832;2023-05-18T14:52:32;6.60;;;1.65;;
74851;SDS011;63400;50.650;6.832;2023-05-18T14:54:58;4.97;;;1.17;;
74851;SDS011;63400;50.650;6.832;2023-05-18T14:57:23;6.75;;;2.03;;
74851;SDS011;63400;50.650;6.832;2023-05-18T14:59:49;2.67;;;1.27;;
74851;SDS011;63400;50.650;6.832;2023-05-18T15:02:15;4.07;;;1.70;;
74851;SDS011;63400;50.650;6.832;2023-05-18T15:04:40;6.28;;;2.28;;
74851;SDS011;63400;50.650;6.832;2023-05-18T15:07:06;5.65;;;1.80;;
74851;SDS011;63400;50.650;6.832;2023-05-18T15:09:32;6.97;;;1.98;;
74851;SDS011;63400;50.650;6.832;2023-05-18T15:11:57;5.47;;;1.15;;
74851;SDS011;63400;50.650;6.832;2023-05-18T15:14:23;9.05;;;1.92;;
74851;SDS011;63400;50.650;6.832;2023-05-18T15:16:48;5.95;;;1.90;;
74851;SDS011;63400;50.650;6.832;2023-05-18T15:19:13;4.88;;;1.83;;
74851;SDS011;63400;50.650;6.832;2023-05-18T15:21:39;7.60;;;1.95;;
74851;SDS011;63400;50.650;6.832;2023-05-18T15:24:05;4.13;;;1.77;;
74851;SDS011;63400;50.650;6.832;2023-05-18T15:26:30;5.05;;;1.95;;
74851;SDS011;63400;50.650;6.832;2023-05-18T15:28:56;6.00;;;1.75;;
74851;SDS011;63400;50.650;6.832;2023-05-18T15:31:21;4.18;;;1.20;;
74851;SDS011;63400;50.650;6.832;2023-05-18T15:33:47;3.97;;;1.15;;
74851;SDS011;63400;50.650;6.832;2023-05-18T15:36:12;4.72;;;1.35;;
74851;SDS011;63400;50.650;6.832;2023-05-18T15:38:37;4.30;;;1.60;;
74851;SDS011;63400;50.650;6.832;2023-05-18T15:41:03;4.85;;;1.70;;
74851;SDS011;63400;50.650;6.832;2023-05-18T15:43:28;3.60;;;2.05;;
74851;SDS011;63400;50.650;6.832;2023-05-18T15:45:54;6.90;;;1.50;;
74851;SDS011;63400;50.650;6.832;2023-05-18T15:48:20;7.78;;;2.05;;
74851;SDS011;63400;50.650;6.832;2023-05-18T15:50:45;6.53;;;2.08;;
74851;SDS011;63400;50.650;6.832;2023-05-18T15:53:11;7.82;;;2.38;;
74851;SDS011;63400;50.650;6.832;2023-05-18T15:55:36;5.90;;;1.75;;
74851;SDS011;63400;50.650;6.832;2023-05-18T15:58:02;10.45;;;2.08;;
74851;SDS011;63400;50.650;6.832;2023-05-18T16:00:27;5.50;;;1.63;;
74851;SDS011;63400;50.650;6.832;2023-05-18T16:02:53;6.45;;;2.33;;
74851;SDS011;63400;50.650;6.832;2023-05-18T16:05:19;6.55;;;2.17;;
74851;SDS011;63400;50.650;6.832;2023-05-18T16:07:44;6.43;;;1.95;;
74851;SDS011;63400;50.650;6.832;2023-05-18T16:10:10;6.35;;;1.92;;
74851;SDS011;63400;50.650;6.832;2023-05-18T16:12:43;5.38;;;2.15;;
74851;SDS011;63400;50.650;6.832;2023-05-18T16:15:09;7.88;;;2.22;;
74851;SDS011;63400;50.650;6.832;2023-05-18T16:17:34;5.97;;;2.28;;
74851;SDS011;63400;50.650;6.832;2023-05-18T16:20:00;5.53;;;2.15;;
74851;SDS011;63400;50.650;6.832;2023-05-18T16:22:25;7.47;;;2.30;;
74851;SDS011;63400;50.650;6.832;2023-05-18T16:24:51;4.22;;;1.52;;
74851;SDS011;63400;50.650;6.832;2023-05-18T16:27:17;5.18;;;2.13;;
74851;SDS011;63400;50.650;6.832;2023-05-18T16:29:42;6.45;;;1.77;;
74851;SDS011;63400;50.650;6.832;2023-05-18T16:32:08;5.80;;;2.08;;
74851;SDS011;63400;50.650;6.832;2023-05-18T16:34:33;5.22;;;1.75;;
74851;SDS011;63400;50.650;6.832;2023-05-18T16:36:59;4.97;;;1.58;;
74851;SDS011;63400;50.650;6.832;2023-05-18T16:39:24;5.88;;;2.05;;
74851;SDS011;63400;50.650;6.832;2023-05-18T16:41:49;9.70;;;2.10;;
74851;SDS011;63400;50.650;6.832;2023-05-18T16:44:15;6.72;;;2.33;;
74851;SDS011;63400;50.650;6.832;2023-05-18T16:46:40;5.60;;;1.73;;
74851;SDS011;63400;50.650;6.832;2023-05-18T16:49:06;4.50;;;1.83;;
74851;SDS011;63400;50.650;6.832;2023-05-18T16:51:31;6.05;;;1.52;;
74851;SDS011;63400;50.650;6.832;2023-05-18T16:53:56;4.70;;;1.73;;
74851;SDS011;63400;50.650;6.832;2023-05-18T16:56:22;5.90;;;2.20;;
74851;SDS011;63400;50.650;6.832;2023-05-18T16:58:49;5.35;;;2.33;;
74851;SDS011;63400;50.650;6.832;2023-05-18T17:01:17;7.05;;;2.10;;
74851;SDS011;63400;50.650;6.832;2023-05-18T17:03:43;8.48;;;2.95;;
74851;SDS011;63400;50.650;6.832;2023-05-18T17:06:08;4.63;;;1.60;;
74851;SDS011;63400;50.650;6.832;2023-05-18T17:08:34;5.45;;;1.98;;
74851;SDS011;63400;50.650;6.832;2023-05-18T22:23:31;7.95;;;3.08;;
74851;SDS011;63400;50.650;6.832;2023-05-18T22:26:00;8.07;;;3.03;;
74851;SDS011;63400;50.650;6.832;2023-05-18T22:31:48;12.70;;;3.25;;
74851;SDS011;63400;50.650;6.832;2023-05-18T22:42:23;11.98;;;3.33;;
74851;SDS011;63400;50.650;6.832;2023-05-18T22:45:02;8.60;;;2.97;;
74851;SDS011;63400;50.650;6.832;2023-05-18T22:51:59;11.63;;;4.05;;
74851;SDS011;63400;50.650;6.832;2023-05-18T22:55:10;11.50;;;3.40;;
74851;SDS011;63400;50.650;6.832;2023-05-18T23:08:17;9.13;;;3.30;;
74851;SDS011;63400;50.650;6.832;2023-05-18T23:11:46;9.43;;;3.10;;
74851;SDS011;63400;50.650;6.832;2023-05-18T23:18:11;8.35;;;2.72;;
74851;SDS011;63400;50.650;6.832;2023-05-18T23:24:33;7.70;;;2.75;;
74851;SDS011;63400;50.650;6.832;2023-05-18T23:27:59;7.85;;;2.90;;
74851;SDS011;63400;50.650;6.832;2023-05-18T23:31:02;8.95;;;3.03;;
74851;SDS011;63400;50.650;6.832;2023-05-18T23:33:27;9.10;;;3.08;;
74851;SDS011;63400;50.650;6.832;2023-05-18T23:35:53;12.98;;;3.45;;
74851;SDS011;63400;50.650;6.832;2023-05-18T23:38:20;9.55;;;2.85;;
74851;SDS011;63400;50.650;6.832;2023-05-18T23:43:13;11.10;;;3.67;;
74851;SDS011;63400;50.650;6.832;2023-05-18T23:45:39;11.85;;;3.72;;
74851;SDS011;63400;50.650;6.832;2023-05-18T23:48:04;10.10;;;3.95;;
74851;SDS011;63400;50.650;6.832;2023-05-18T23:50:30;9.52;;;2.88;;
74851;SDS011;63400;50.650;6.832;2023-05-18T23:52:56;12.48;;;4.18;;
74851;SDS011;63400;50.650;6.832;2023-05-18T23:55:24;9.68;;;3.42;;
74851;SDS011;63400;50.650;6.832;2023-05-18T23:57:50;9.57;;;2.72;;
